createdAt,value
2018-10-05T00:01:11.183Z,9.50
2018-10-05T00:03:39.567Z,9.50
2018-10-05T00:06:07.950Z,9.50
2018-10-05T00:08:36.691Z,9.50
2018-10-05T00:11:05.721Z,9.50
2018-10-05T00:13:34.183Z,9.40
2018-10-05T00:16:02.987Z,9.40
2018-10-05T00:18:31.780Z,9.30
2018-10-05T00:21:00.173Z,9.30
2018-10-05T00:23:28.570Z,9.30
2018-10-05T00:25:57.010Z,9.20
2018-10-05T00:28:25.442Z,9.20
2018-10-05T00:30:53.862Z,9.20
2018-10-05T00:33:22.340Z,9.10
2018-10-05T00:35:50.737Z,9.10
2018-10-05T00:38:19.184Z,9.10
2018-10-05T00:40:47.622Z,9.10
2018-10-05T00:43:16.019Z,9.10
2018-10-05T00:45:44.471Z,9.00
2018-10-05T00:48:13.004Z,9.00
2018-10-05T00:50:41.420Z,9.00
2018-10-05T00:53:10.031Z,9.00
2018-10-05T00:55:38.278Z,9.00
2018-10-05T00:58:07.235Z,9.00
2018-10-05T01:00:35.699Z,9.00
2018-10-05T01:03:04.237Z,9.00
2018-10-05T01:05:32.605Z,9.00
2018-10-05T01:08:01.281Z,9.00
2018-10-05T01:10:29.673Z,9.00
2018-10-05T01:12:58.077Z,9.00
2018-10-05T01:15:26.496Z,9.00
2018-10-05T01:17:54.880Z,9.00
2018-10-05T01:20:23.258Z,9.00
2018-10-05T01:22:52.314Z,9.00
2018-10-05T01:25:20.843Z,9.00
2018-10-05T01:27:49.377Z,8.90
2018-10-05T01:30:17.750Z,8.90
2018-10-05T01:32:46.152Z,8.90
2018-10-05T01:35:14.848Z,8.90
2018-10-05T01:37:43.421Z,8.90
2018-10-05T01:40:11.909Z,8.90
2018-10-05T01:42:40.330Z,8.90
2018-10-05T01:45:08.808Z,8.90
2018-10-05T01:47:37.372Z,8.90
2018-10-05T01:50:05.788Z,8.90
2018-10-05T01:52:34.210Z,8.90
2018-10-05T01:55:02.667Z,8.80
2018-10-05T01:57:31.320Z,8.70
2018-10-05T01:59:59.776Z,8.60
2018-10-05T02:02:28.195Z,8.60
2018-10-05T02:04:56.581Z,8.50
2018-10-05T02:07:24.985Z,8.50
2018-10-05T02:09:53.416Z,8.50
2018-10-05T02:12:21.939Z,8.50
2018-10-05T02:14:50.335Z,8.50
2018-10-05T02:17:18.759Z,8.40
2018-10-05T02:19:47.305Z,8.40
2018-10-05T02:22:15.717Z,8.30
2018-10-05T02:24:44.191Z,8.30
2018-10-05T02:27:12.710Z,8.30
2018-10-05T02:29:41.223Z,8.30
2018-10-05T02:32:09.639Z,8.30
2018-10-05T02:34:38.153Z,8.30
2018-10-05T02:37:06.600Z,8.40
2018-10-05T02:39:35.084Z,8.40
2018-10-05T02:42:03.506Z,8.40
2018-10-05T02:44:31.928Z,8.40
2018-10-05T02:47:00.719Z,8.30
2018-10-05T02:49:29.710Z,8.30
2018-10-05T02:51:58.390Z,8.30
2018-10-05T02:54:27.141Z,8.30
2018-10-05T02:56:56.272Z,8.20
2018-10-05T02:59:25.294Z,8.10
2018-10-05T03:02:05.144Z,8.10
2018-10-05T03:04:33.735Z,8.10
2018-10-05T03:07:03.109Z,8.10
2018-10-05T03:09:31.737Z,8.00
2018-10-05T03:12:00.853Z,7.90
2018-10-05T03:14:29.969Z,8.00
2018-10-05T03:16:58.696Z,8.00
2018-10-05T03:19:27.767Z,8.00
2018-10-05T03:21:56.280Z,8.00
2018-10-05T03:24:25.209Z,8.00
2018-10-05T03:26:54.171Z,8.10
2018-10-05T03:29:23.154Z,8.10
2018-10-05T03:31:51.908Z,8.00
2018-10-05T03:34:20.628Z,8.00
2018-10-05T03:36:49.445Z,7.90
2018-10-05T03:39:18.000Z,7.90
2018-10-05T03:41:46.372Z,7.90
2018-10-05T03:44:15.178Z,8.00
2018-10-05T03:46:43.612Z,8.00
2018-10-05T03:49:12.598Z,8.00
2018-10-05T03:51:40.986Z,8.00
2018-10-05T03:54:10.158Z,8.00
2018-10-05T03:56:38.937Z,7.90
2018-10-05T03:59:07.554Z,7.80
2018-10-05T04:01:36.904Z,7.80
2018-10-05T04:04:05.722Z,7.80
2018-10-05T04:06:34.713Z,7.80
2018-10-05T04:09:04.810Z,7.80
2018-10-05T04:11:33.844Z,7.80
2018-10-05T04:14:02.906Z,7.80
2018-10-05T04:16:31.655Z,7.80
2018-10-05T04:19:00.159Z,7.80
2018-10-05T04:21:28.809Z,7.80
2018-10-05T04:23:57.588Z,7.80
2018-10-05T04:26:26.036Z,7.70
2018-10-05T04:28:54.449Z,7.60
2018-10-05T04:31:23.447Z,7.60
2018-10-05T04:33:51.861Z,7.60
2018-10-05T04:36:20.543Z,7.60
2018-10-05T04:38:49.263Z,7.60
2018-10-05T04:41:18.401Z,7.60
2018-10-05T04:43:47.175Z,7.60
2018-10-05T04:46:15.584Z,7.60
2018-10-05T04:48:44.456Z,7.60
2018-10-05T04:51:13.163Z,7.60
2018-10-05T04:53:41.632Z,7.50
2018-10-05T04:56:10.086Z,7.40
2018-10-05T04:58:38.877Z,7.30
2018-10-05T05:01:07.624Z,7.10
2018-10-05T05:03:37.167Z,7.00
2018-10-05T05:06:06.713Z,7.00
2018-10-05T05:08:35.716Z,6.90
2018-10-05T05:11:04.922Z,7.00
2018-10-05T05:13:33.401Z,6.90
2018-10-05T05:16:02.192Z,6.90
2018-10-05T05:18:30.643Z,6.90
2018-10-05T05:20:59.096Z,7.00
2018-10-05T05:23:27.776Z,7.00
2018-10-05T05:25:56.752Z,7.00
2018-10-05T05:28:25.476Z,7.00
2018-10-05T05:30:54.011Z,7.00
2018-10-05T05:33:23.182Z,7.10
2018-10-05T05:35:51.965Z,7.10
2018-10-05T05:38:20.887Z,7.20
2018-10-05T05:40:49.499Z,7.20
2018-10-05T05:43:18.184Z,7.20
2018-10-05T05:45:46.908Z,7.20
2018-10-05T05:48:15.630Z,7.10
2018-10-05T05:50:44.321Z,7.10
2018-10-05T05:53:12.957Z,7.10
2018-10-05T05:55:41.613Z,7.10
2018-10-05T05:58:10.060Z,7.10
2018-10-05T06:00:38.489Z,7.20
2018-10-05T06:03:07.308Z,7.20
2018-10-05T06:05:35.774Z,7.30
2018-10-05T06:08:04.438Z,7.20
2018-10-05T06:10:32.863Z,7.10
2018-10-05T06:13:01.638Z,7.10
2018-10-05T06:15:30.142Z,7.10
2018-10-05T06:17:59.019Z,7.10
2018-10-05T06:20:27.880Z,7.10
2018-10-05T06:22:56.548Z,7.10
2018-10-05T06:25:24.969Z,7.10
2018-10-05T06:27:53.980Z,7.20
2018-10-05T06:30:22.396Z,7.20
2018-10-05T06:32:50.808Z,7.20
2018-10-05T06:35:19.552Z,7.30
2018-10-05T06:37:48.189Z,7.40
2018-10-05T06:40:16.934Z,7.50
2018-10-05T06:42:45.475Z,7.60
2018-10-05T06:45:14.522Z,7.70
2018-10-05T06:47:42.951Z,7.80
2018-10-05T06:50:11.325Z,7.90
2018-10-05T06:52:40.582Z,7.90
2018-10-05T06:55:09.329Z,8.00
2018-10-05T06:57:38.062Z,8.10
2018-10-05T07:00:06.915Z,8.10
2018-10-05T07:02:35.743Z,8.10
2018-10-05T07:05:04.516Z,8.20
2018-10-05T07:07:33.704Z,8.20
2018-10-05T07:10:02.328Z,8.30
2018-10-05T07:12:30.820Z,8.40
2018-10-05T07:14:59.334Z,8.50
2018-10-05T07:17:27.967Z,8.60
2018-10-05T07:19:56.739Z,8.60
2018-10-05T07:22:25.799Z,8.70
2018-10-05T07:24:54.208Z,8.70
2018-10-05T07:27:22.773Z,8.70
2018-10-05T07:29:51.184Z,8.80
2018-10-05T07:32:19.591Z,8.90
2018-10-05T07:34:48.022Z,9.00
2018-10-05T07:37:16.475Z,9.00
2018-10-05T07:39:44.879Z,9.00
2018-10-05T07:42:13.434Z,8.90
2018-10-05T07:44:41.974Z,8.90
2018-10-05T07:47:10.415Z,9.10
2018-10-05T07:49:38.849Z,9.20
2018-10-05T07:52:07.301Z,9.40
2018-10-05T07:54:35.749Z,9.40
2018-10-05T07:57:04.186Z,9.40
2018-10-05T07:59:33.583Z,9.40
2018-10-05T08:02:02.020Z,9.40
2018-10-05T08:04:30.449Z,9.40
2018-10-05T08:06:59.141Z,9.40
2018-10-05T08:09:27.632Z,9.60
2018-10-05T08:11:56.104Z,9.70
2018-10-05T08:14:24.528Z,9.80
2018-10-05T08:16:52.988Z,9.80
2018-10-05T08:19:21.425Z,10.00
2018-10-05T08:21:49.826Z,10.00
2018-10-05T08:24:18.353Z,10.20
2018-10-05T08:26:46.802Z,10.30
2018-10-05T08:29:15.184Z,10.40
2018-10-05T08:31:43.629Z,10.50
2018-10-05T08:34:12.122Z,10.50
2018-10-05T08:36:40.826Z,10.50
2018-10-05T08:39:10.827Z,10.50
2018-10-05T08:41:39.283Z,10.60
2018-10-05T08:44:07.979Z,10.50
2018-10-05T08:46:36.428Z,10.60
2018-10-05T08:49:05.363Z,10.60
2018-10-05T08:51:33.896Z,10.70
2018-10-05T08:54:02.319Z,10.70
2018-10-05T08:56:30.733Z,10.60
2018-10-05T08:58:59.171Z,10.60
2018-10-05T09:01:27.883Z,10.60
2018-10-05T09:03:56.970Z,10.60
2018-10-05T09:06:26.277Z,10.80
2018-10-05T09:08:54.827Z,11.10
2018-10-05T09:11:23.320Z,11.40
2018-10-05T09:13:52.247Z,11.60
2018-10-05T09:16:21.066Z,11.70
2018-10-05T09:18:49.830Z,11.80
2018-10-05T09:21:18.933Z,12.00
2018-10-05T09:23:47.442Z,12.10
2018-10-05T09:26:15.841Z,12.20
2018-10-05T09:28:44.756Z,12.30
2018-10-05T09:31:13.334Z,12.50
2018-10-05T09:33:42.067Z,12.60
2018-10-05T09:36:10.989Z,12.90
2018-10-05T09:38:39.527Z,13.30
2018-10-05T09:41:08.463Z,13.50
2018-10-05T09:43:37.261Z,13.70
2018-10-05T09:46:06.247Z,14.10
2018-10-05T09:48:35.241Z,14.40
2018-10-05T09:51:04.344Z,14.80
2018-10-05T09:53:33.014Z,15.20
2018-10-05T09:56:01.454Z,15.40
2018-10-05T09:58:30.103Z,15.80
2018-10-05T10:01:04.247Z,16.30
2018-10-05T10:03:34.328Z,16.60
2018-10-05T10:06:03.261Z,16.80
2018-10-05T10:08:32.425Z,16.90
2018-10-05T10:11:01.547Z,17.00
2018-10-05T10:13:30.127Z,17.20
2018-10-05T10:15:58.680Z,17.40
2018-10-05T10:18:27.091Z,17.60
2018-10-05T10:20:55.895Z,17.70
2018-10-05T10:23:24.829Z,17.80
2018-10-05T10:25:53.587Z,18.00
2018-10-05T10:28:22.256Z,18.30
2018-10-05T10:30:51.699Z,18.30
2018-10-05T10:33:20.611Z,18.40
2018-10-05T10:35:49.970Z,18.50
2018-10-05T10:38:18.476Z,18.80
2018-10-05T10:40:47.069Z,19.10
2018-10-05T10:43:15.739Z,19.40
2018-10-05T10:45:44.808Z,19.70
2018-10-05T10:48:13.871Z,19.90
2018-10-05T10:50:42.277Z,20.00
2018-10-05T10:53:11.152Z,20.10
2018-10-05T10:55:40.282Z,20.20
2018-10-05T10:58:09.915Z,20.30
2018-10-05T11:00:38.971Z,20.20
2018-10-05T11:03:07.915Z,20.30
2018-10-05T11:05:36.370Z,20.50
2018-10-05T11:08:04.937Z,20.70
2018-10-05T11:10:33.938Z,20.90
2018-10-05T11:13:02.386Z,21.10
2018-10-05T11:15:32.048Z,21.10
2018-10-05T11:18:00.580Z,21.20
2018-10-05T11:20:29.271Z,21.40
2018-10-05T11:22:58.063Z,21.60
2018-10-05T11:25:26.580Z,21.80
2018-10-05T11:27:55.132Z,21.70
2018-10-05T11:30:23.841Z,21.70
2018-10-05T11:32:52.509Z,21.90
2018-10-05T11:35:21.829Z,22.10
2018-10-05T11:37:50.596Z,22.10
2018-10-05T11:40:19.336Z,22.30
2018-10-05T11:42:48.096Z,22.40
2018-10-05T11:45:16.845Z,22.40
2018-10-05T11:47:45.585Z,22.30
2018-10-05T11:50:14.388Z,22.30
2018-10-05T11:52:43.068Z,22.20
2018-10-05T11:55:11.692Z,22.10
2018-10-05T11:57:40.516Z,22.00
2018-10-05T12:00:09.512Z,22.00
2018-10-05T12:02:38.330Z,22.10
2018-10-05T12:05:07.483Z,22.30
2018-10-05T12:07:35.918Z,22.40
2018-10-05T12:10:04.383Z,22.30
2018-10-05T12:12:33.353Z,22.60
2018-10-05T12:15:01.769Z,22.80
2018-10-05T12:17:30.710Z,22.90
2018-10-05T12:19:59.458Z,22.90
2018-10-05T12:22:28.682Z,22.90
2018-10-05T12:24:57.993Z,22.70
2018-10-05T12:27:27.007Z,22.60
2018-10-05T12:29:55.481Z,22.60
2018-10-05T12:32:24.534Z,22.70
2018-10-05T12:34:53.254Z,22.60
2018-10-05T12:37:21.915Z,22.80
2018-10-05T12:39:50.585Z,23.00
2018-10-05T12:42:19.253Z,23.10
2018-10-05T12:44:48.381Z,23.30
2018-10-05T12:47:16.912Z,23.40
2018-10-05T12:49:45.730Z,23.40
2018-10-05T12:52:14.234Z,23.50
2018-10-05T12:54:42.674Z,23.40
2018-10-05T12:57:11.669Z,23.40
2018-10-05T12:59:40.356Z,23.20
2018-10-05T13:02:09.067Z,23.20
2018-10-05T13:04:37.592Z,23.10
2018-10-05T13:07:06.498Z,23.20
2018-10-05T13:09:35.341Z,23.20
2018-10-05T13:12:04.266Z,23.30
2018-10-05T13:14:33.004Z,23.20
2018-10-05T13:17:01.786Z,23.20
2018-10-05T13:19:30.632Z,23.30
2018-10-05T13:21:59.571Z,23.30
2018-10-05T13:24:28.506Z,23.20
2018-10-05T13:26:56.957Z,23.20
2018-10-05T13:29:26.493Z,23.20
2018-10-05T13:31:54.917Z,23.20
2018-10-05T13:34:23.431Z,23.10
2018-10-05T13:36:52.193Z,23.00
2018-10-05T13:39:20.883Z,23.00
2018-10-05T13:41:49.979Z,22.80
2018-10-05T13:44:18.624Z,22.60
2018-10-05T13:46:47.797Z,22.50
2018-10-05T13:49:16.547Z,22.40
2018-10-05T13:51:45.148Z,22.30
2018-10-05T13:54:13.918Z,22.20
2018-10-05T13:56:42.630Z,22.10
2018-10-05T13:59:11.041Z,22.10
2018-10-05T14:01:39.768Z,22.10
2018-10-05T14:04:08.710Z,22.20
2018-10-05T14:06:37.472Z,22.30
2018-10-05T14:09:08.840Z,22.30
2018-10-05T14:11:37.272Z,22.30
2018-10-05T14:14:06.006Z,22.20
2018-10-05T14:16:34.703Z,22.00
2018-10-05T14:19:03.620Z,21.80
2018-10-05T14:21:32.489Z,21.50
2018-10-05T14:24:01.535Z,21.40
2018-10-05T14:26:30.274Z,21.30
2018-10-05T14:28:59.370Z,21.20
2018-10-05T14:31:27.891Z,21.00
2018-10-05T14:33:56.716Z,20.90
2018-10-05T14:36:25.620Z,20.80
2018-10-05T14:38:54.725Z,20.70
2018-10-05T14:41:23.955Z,20.50
2018-10-05T14:43:52.631Z,20.40
2018-10-05T14:46:21.108Z,20.30
2018-10-05T14:48:49.836Z,20.20
2018-10-05T14:51:18.540Z,20.10
2018-10-05T14:53:47.286Z,20.00
2018-10-05T14:56:16.026Z,20.00
2018-10-05T14:58:44.486Z,20.00
2018-10-05T15:01:13.137Z,20.00
2018-10-05T15:03:41.770Z,20.00
2018-10-05T15:06:10.587Z,19.90
2018-10-05T15:08:39.016Z,19.80
2018-10-05T15:11:07.930Z,19.70
2018-10-05T15:13:37.164Z,19.60
2018-10-05T15:16:05.636Z,19.40
2018-10-05T15:18:34.384Z,19.30
2018-10-05T15:21:02.770Z,19.30
2018-10-05T15:23:31.762Z,19.10
2018-10-05T15:26:00.484Z,19.00
2018-10-05T15:28:29.485Z,19.00
2018-10-05T15:30:58.149Z,18.90
2018-10-05T15:33:26.845Z,18.80
2018-10-05T15:35:55.330Z,18.70
2018-10-05T15:38:24.389Z,18.70
2018-10-05T15:40:53.279Z,18.60
2018-10-05T15:43:21.675Z,18.60
2018-10-05T15:45:50.076Z,18.50
2018-10-05T15:48:19.153Z,18.40
2018-10-05T15:50:47.697Z,18.30
2018-10-05T15:53:16.738Z,18.30
2018-10-05T15:55:45.561Z,18.20
2018-10-05T15:58:14.017Z,18.10
2018-10-05T16:00:42.457Z,18.10
2018-10-05T16:03:10.870Z,18.00
2018-10-05T16:05:39.319Z,18.00
2018-10-05T16:08:07.784Z,17.90
2018-10-05T16:10:36.200Z,17.90
2018-10-05T16:13:05.326Z,17.80
2018-10-05T16:15:33.818Z,17.80
2018-10-05T16:18:02.644Z,17.70
2018-10-05T16:20:31.676Z,17.70
2018-10-05T16:23:00.907Z,17.60
2018-10-05T16:25:30.013Z,17.50
2018-10-05T16:27:58.759Z,17.50
2018-10-05T16:30:27.223Z,17.40
2018-10-05T16:32:56.210Z,17.40
2018-10-05T16:35:24.733Z,17.40
2018-10-05T16:37:53.422Z,17.40
2018-10-05T16:40:21.876Z,17.40
2018-10-05T16:42:50.488Z,17.30
2018-10-05T16:45:19.546Z,17.30
2018-10-05T16:47:49.082Z,17.20
2018-10-05T16:50:17.567Z,17.00
2018-10-05T16:52:46.363Z,17.00
2018-10-05T16:55:14.962Z,16.90
2018-10-05T16:57:43.389Z,16.80
2018-10-05T17:00:11.825Z,16.70
2018-10-05T17:02:40.311Z,16.70
2018-10-05T17:05:08.877Z,16.60
2018-10-05T17:07:37.358Z,16.50
2018-10-05T17:10:05.863Z,16.40
2018-10-05T17:12:34.465Z,16.40
2018-10-05T17:15:02.896Z,16.40
2018-10-05T17:17:31.456Z,16.30
2018-10-05T17:19:59.897Z,16.20
2018-10-05T17:22:28.372Z,16.10
2018-10-05T17:24:56.836Z,16.00
2018-10-05T17:27:25.686Z,16.00
2018-10-05T17:29:54.475Z,15.90
2018-10-05T17:32:22.976Z,15.80
2018-10-05T17:34:52.005Z,15.80
2018-10-05T17:37:20.461Z,15.70
2018-10-05T17:39:48.938Z,15.60
2018-10-05T17:42:17.356Z,15.60
2018-10-05T17:44:45.826Z,15.50
2018-10-05T17:47:14.398Z,15.50
2018-10-05T17:49:42.830Z,15.40
2018-10-05T17:52:11.405Z,15.40
2018-10-05T17:54:39.868Z,15.40
2018-10-05T17:57:08.681Z,15.30
2018-10-05T17:59:37.170Z,15.20
2018-10-05T18:02:05.629Z,15.10
2018-10-05T18:04:34.063Z,15.10
2018-10-05T18:07:02.573Z,15.00
2018-10-05T18:09:31.015Z,15.00
2018-10-05T18:11:59.797Z,14.90
2018-10-05T18:14:28.253Z,14.90
2018-10-05T18:16:56.741Z,14.80
2018-10-05T18:19:25.182Z,14.70
2018-10-05T18:21:53.800Z,14.60
2018-10-05T18:24:22.209Z,14.60
2018-10-05T18:26:50.649Z,14.50
2018-10-05T18:29:19.270Z,14.60
2018-10-05T18:31:47.700Z,14.60
2018-10-05T18:34:16.207Z,14.50
2018-10-05T18:36:44.843Z,14.40
2018-10-05T18:39:13.347Z,14.40
2018-10-05T18:41:42.083Z,14.30
2018-10-05T18:44:10.833Z,14.30
2018-10-05T18:46:39.404Z,14.30
2018-10-05T18:49:08.052Z,14.30
2018-10-05T18:51:36.528Z,14.30
2018-10-05T18:54:05.024Z,14.30
2018-10-05T18:56:44.935Z,14.30
2018-10-05T18:59:13.484Z,14.30
2018-10-05T19:01:41.967Z,14.30
2018-10-05T19:04:10.458Z,14.30
2018-10-05T19:06:39.427Z,14.30
2018-10-05T19:09:09.238Z,14.30
2018-10-05T19:11:38.539Z,14.10
2018-10-05T19:14:07.377Z,14.10
2018-10-05T19:16:36.782Z,14.10
2018-10-05T19:19:05.942Z,14.00
2018-10-05T19:21:34.645Z,14.00
2018-10-05T19:24:05.576Z,14.00
2018-10-05T19:26:34.438Z,14.00
2018-10-05T19:29:03.631Z,14.00
2018-10-05T19:31:32.207Z,13.90
2018-10-05T19:34:01.362Z,13.90
2018-10-05T19:36:30.298Z,13.90
2018-10-05T19:38:59.900Z,13.80
2018-10-05T19:41:29.127Z,13.90
2018-10-05T19:43:57.806Z,13.80
2018-10-05T19:46:26.654Z,13.80
2018-10-05T19:48:55.531Z,13.80
2018-10-05T19:51:25.594Z,13.70
2018-10-05T19:53:54.480Z,13.70
2018-10-05T19:56:25.227Z,13.70
2018-10-05T19:58:53.942Z,13.60
2018-10-05T20:01:23.995Z,13.50
2018-10-05T20:03:53.492Z,13.50
2018-10-05T20:06:22.794Z,13.40
2018-10-05T20:08:51.648Z,13.40
2018-10-05T20:11:20.178Z,13.40
2018-10-05T20:13:48.638Z,13.40
2018-10-05T20:16:17.054Z,13.40
2018-10-05T20:18:45.530Z,13.30
2018-10-05T20:21:13.964Z,13.20
2018-10-05T20:23:42.395Z,13.20
2018-10-05T20:26:10.887Z,13.20
2018-10-05T20:28:39.435Z,13.10
2018-10-05T20:31:07.925Z,13.10
2018-10-05T20:33:36.341Z,13.00
2018-10-05T20:36:04.979Z,13.00
2018-10-05T20:38:33.483Z,13.00
2018-10-05T20:41:01.842Z,12.90
2018-10-05T20:43:30.338Z,12.90
2018-10-05T20:45:58.832Z,12.80
2018-10-05T20:48:27.283Z,12.70
2018-10-05T20:50:55.750Z,12.70
2018-10-05T20:53:24.234Z,12.60
2018-10-05T20:55:52.721Z,12.50
2018-10-05T20:58:23.756Z,12.50
2018-10-05T21:00:52.808Z,12.40
2018-10-05T21:03:26.620Z,12.40
2018-10-05T21:05:55.090Z,12.50
2018-10-05T21:08:23.697Z,12.50
2018-10-05T21:10:52.200Z,12.50
2018-10-05T21:13:20.638Z,12.40
2018-10-05T21:15:49.060Z,12.40
2018-10-05T21:18:17.596Z,12.40
2018-10-05T21:20:46.039Z,12.40
2018-10-05T21:23:14.574Z,12.40
2018-10-05T21:25:43.111Z,12.50
2018-10-05T21:28:11.557Z,12.40
2018-10-05T21:30:40.145Z,12.40
2018-10-05T21:33:08.697Z,12.40
2018-10-05T21:35:37.278Z,12.40
2018-10-05T21:38:05.873Z,12.40
2018-10-05T21:40:34.305Z,12.40
2018-10-05T21:43:02.793Z,12.30
2018-10-05T21:45:31.367Z,12.30
2018-10-05T21:47:59.819Z,12.30
2018-10-05T21:50:28.280Z,12.20
2018-10-05T21:52:56.699Z,12.20
2018-10-05T21:55:25.147Z,12.20
2018-10-05T21:57:53.552Z,12.20
2018-10-05T22:00:21.998Z,12.20
2018-10-05T22:02:50.418Z,12.10
2018-10-05T22:05:18.905Z,12.10
2018-10-05T22:07:47.298Z,12.00
2018-10-05T22:10:15.741Z,12.00
2018-10-05T22:12:44.324Z,12.00
2018-10-05T22:15:12.822Z,11.90
2018-10-05T22:17:41.207Z,11.80
2018-10-05T22:20:09.694Z,11.80
2018-10-05T22:22:38.199Z,11.80
2018-10-05T22:25:06.582Z,11.70
2018-10-05T22:27:35.110Z,11.70
2018-10-05T22:30:03.539Z,11.60
2018-10-05T22:32:32.043Z,11.50
2018-10-05T22:35:00.542Z,11.30
2018-10-05T22:37:28.939Z,11.20
2018-10-05T22:39:57.391Z,11.10
2018-10-05T22:42:25.797Z,11.10
2018-10-05T22:44:54.234Z,11.10
2018-10-05T22:47:22.638Z,11.10
2018-10-05T22:49:51.039Z,11.10
2018-10-05T22:52:19.480Z,11.00
2018-10-05T22:54:47.928Z,11.00
2018-10-05T22:57:16.332Z,10.90
2018-10-05T22:59:44.749Z,10.90
2018-10-05T23:02:13.292Z,10.80
2018-10-05T23:04:41.846Z,10.80
2018-10-05T23:07:10.285Z,10.70
2018-10-05T23:09:38.725Z,10.70
2018-10-05T23:12:07.569Z,10.70
2018-10-05T23:14:35.986Z,10.60
2018-10-05T23:17:04.407Z,10.60
2018-10-05T23:19:32.851Z,10.70
2018-10-05T23:22:01.284Z,10.70
2018-10-05T23:24:29.697Z,10.60
2018-10-05T23:26:58.099Z,10.50
2018-10-05T23:29:26.634Z,10.50
2018-10-05T23:31:55.244Z,10.50
2018-10-05T23:34:23.701Z,10.50
2018-10-05T23:36:52.129Z,10.50
2018-10-05T23:39:20.521Z,10.50
2018-10-05T23:41:49.033Z,10.50
2018-10-05T23:44:17.446Z,10.50
2018-10-05T23:46:45.989Z,10.60
2018-10-05T23:49:14.392Z,10.60
2018-10-05T23:51:42.778Z,10.60
2018-10-05T23:54:11.242Z,10.60
2018-10-05T23:56:39.867Z,10.60
2018-10-05T23:59:08.324Z,10.60
